sensor_id;sensor_type;location;lat;lon;timestamp;P1;durP1;ratioP1;P2;durP2;ratioP2
11048;SDS011;5577;42.706;23.160;2022-12-07T00:00:22;36.17;;;20.37;;
11048;SDS011;5577;42.706;23.160;2022-12-07T00:03:06;35.63;;;19.70;;
11048;SDS011;5577;42.706;23.160;2022-12-07T00:05:50;35.13;;;19.63;;
11048;SDS011;5577;42.706;23.160;2022-12-07T00:08:34;36.93;;;20.73;;
11048;SDS011;5577;42.706;23.160;2022-12-07T00:11:20;33.07;;;18.43;;
11048;SDS011;5577;42.706;23.160;2022-12-07T00:14:06;37.47;;;19.50;;
11048;SDS011;5577;42.706;23.160;2022-12-07T00:16:53;32.37;;;19.33;;
11048;SDS011;5577;42.706;23.160;2022-12-07T00:19:37;31.93;;;18.53;;
11048;SDS011;5577;42.706;23.160;2022-12-07T00:22:21;34.77;;;19.87;;
11048;SDS011;5577;42.706;23.160;2022-12-07T00:25:05;32.40;;;19.93;;
11048;SDS011;5577;42.706;23.160;2022-12-07T00:27:49;33.10;;;19.17;;
11048;SDS011;5577;42.706;23.160;2022-12-07T00:30:33;34.73;;;19.80;;
11048;SDS011;5577;42.706;23.160;2022-12-07T00:33:17;35.90;;;20.13;;
11048;SDS011;5577;42.706;23.160;2022-12-07T00:36:01;36.43;;;19.57;;
11048;SDS011;5577;42.706;23.160;2022-12-07T00:38:48;39.40;;;20.33;;
11048;SDS011;5577;42.706;23.160;2022-12-07T00:41:33;39.37;;;20.50;;
11048;SDS011;5577;42.706;23.160;2022-12-07T00:44:17;35.00;;;20.33;;
11048;SDS011;5577;42.706;23.160;2022-12-07T00:47:00;38.97;;;20.83;;
11048;SDS011;5577;42.706;23.160;2022-12-07T00:49:44;37.50;;;20.47;;
11048;SDS011;5577;42.706;23.160;2022-12-07T00:52:28;33.77;;;19.57;;
11048;SDS011;5577;42.706;23.160;2022-12-07T00:55:12;37.27;;;19.97;;
11048;SDS011;5577;42.706;23.160;2022-12-07T00:57:56;36.07;;;19.77;;
11048;SDS011;5577;42.706;23.160;2022-12-07T01:00:41;36.57;;;19.63;;
11048;SDS011;5577;42.706;23.160;2022-12-07T01:03:26;39.00;;;20.60;;
11048;SDS011;5577;42.706;23.160;2022-12-07T01:06:10;38.93;;;22.23;;
11048;SDS011;5577;42.706;23.160;2022-12-07T01:08:58;37.33;;;20.80;;
11048;SDS011;5577;42.706;23.160;2022-12-07T01:11:43;35.23;;;20.40;;
11048;SDS011;5577;42.706;23.160;2022-12-07T01:14:27;36.70;;;20.67;;
11048;SDS011;5577;42.706;23.160;2022-12-07T01:17:11;39.13;;;21.60;;
11048;SDS011;5577;42.706;23.160;2022-12-07T01:19:54;40.40;;;22.37;;
11048;SDS011;5577;42.706;23.160;2022-12-07T01:22:39;43.67;;;22.10;;
11048;SDS011;5577;42.706;23.160;2022-12-07T01:25:24;41.27;;;22.70;;
11048;SDS011;5577;42.706;23.160;2022-12-07T01:28:08;37.33;;;20.13;;
11048;SDS011;5577;42.706;23.160;2022-12-07T01:33:56;37.77;;;19.93;;
11048;SDS011;5577;42.706;23.160;2022-12-07T01:36:42;34.40;;;19.07;;
11048;SDS011;5577;42.706;23.160;2022-12-07T01:39:26;32.23;;;18.93;;
11048;SDS011;5577;42.706;23.160;2022-12-07T01:42:11;37.70;;;20.33;;
11048;SDS011;5577;42.706;23.160;2022-12-07T01:48:01;35.30;;;19.10;;
11048;SDS011;5577;42.706;23.160;2022-12-07T01:50:45;38.83;;;19.40;;
11048;SDS011;5577;42.706;23.160;2022-12-07T01:53:32;33.53;;;18.47;;
11048;SDS011;5577;42.706;23.160;2022-12-07T01:56:20;30.33;;;17.60;;
11048;SDS011;5577;42.706;23.160;2022-12-07T01:59:08;32.73;;;17.60;;
11048;SDS011;5577;42.706;23.160;2022-12-07T02:01:53;37.03;;;18.90;;
11048;SDS011;5577;42.706;23.160;2022-12-07T02:04:38;35.50;;;18.20;;
11048;SDS011;5577;42.706;23.160;2022-12-07T02:07:23;34.97;;;18.03;;
11048;SDS011;5577;42.706;23.160;2022-12-07T02:10:27;33.53;;;18.93;;
11048;SDS011;5577;42.706;23.160;2022-12-07T02:13:20;36.33;;;18.60;;
11048;SDS011;5577;42.706;23.160;2022-12-07T02:19:08;32.83;;;18.50;;
11048;SDS011;5577;42.706;23.160;2022-12-07T02:25:16;35.03;;;18.00;;
11048;SDS011;5577;42.706;23.160;2022-12-07T02:31:33;34.73;;;18.30;;
11048;SDS011;5577;42.706;23.160;2022-12-07T02:37:08;33.80;;;17.97;;
11048;SDS011;5577;42.706;23.160;2022-12-07T02:40:01;34.83;;;17.97;;
11048;SDS011;5577;42.706;23.160;2022-12-07T02:42:55;32.97;;;17.93;;
11048;SDS011;5577;42.706;23.160;2022-12-07T02:45:46;39.73;;;20.30;;
11048;SDS011;5577;42.706;23.160;2022-12-07T02:48:33;45.50;;;21.87;;
11048;SDS011;5577;42.706;23.160;2022-12-07T02:51:18;54.27;;;23.93;;
11048;SDS011;5577;42.706;23.160;2022-12-07T02:54:02;58.07;;;25.00;;
11048;SDS011;5577;42.706;23.160;2022-12-07T02:57:02;66.53;;;28.50;;
11048;SDS011;5577;42.706;23.160;2022-12-07T03:00:07;56.47;;;25.90;;
11048;SDS011;5577;42.706;23.160;2022-12-07T03:02:54;43.37;;;20.73;;
11048;SDS011;5577;42.706;23.160;2022-12-07T03:06:09;36.27;;;18.63;;
11048;SDS011;5577;42.706;23.160;2022-12-07T03:09:26;34.03;;;18.03;;
11048;SDS011;5577;42.706;23.160;2022-12-07T03:12:21;32.97;;;18.17;;
11048;SDS011;5577;42.706;23.160;2022-12-07T03:15:20;32.67;;;18.97;;
11048;SDS011;5577;42.706;23.160;2022-12-07T03:18:10;35.97;;;19.17;;
11048;SDS011;5577;42.706;23.160;2022-12-07T03:21:02;34.20;;;18.40;;
11048;SDS011;5577;42.706;23.160;2022-12-07T03:23:56;38.03;;;19.33;;
11048;SDS011;5577;42.706;23.160;2022-12-07T03:26:42;34.53;;;18.93;;
11048;SDS011;5577;42.706;23.160;2022-12-07T03:29:34;37.57;;;19.80;;
11048;SDS011;5577;42.706;23.160;2022-12-07T03:32:35;36.67;;;19.63;;
11048;SDS011;5577;42.706;23.160;2022-12-07T03:38:42;33.63;;;18.83;;
11048;SDS011;5577;42.706;23.160;2022-12-07T03:41:33;36.70;;;18.63;;
11048;SDS011;5577;42.706;23.160;2022-12-07T03:44:20;37.90;;;19.90;;
11048;SDS011;5577;42.706;23.160;2022-12-07T03:47:13;35.27;;;19.10;;
11048;SDS011;5577;42.706;23.160;2022-12-07T03:53:32;36.40;;;19.77;;
11048;SDS011;5577;42.706;23.160;2022-12-07T03:56:23;40.20;;;20.23;;
11048;SDS011;5577;42.706;23.160;2022-12-07T03:59:08;36.00;;;19.67;;
11048;SDS011;5577;42.706;23.160;2022-12-07T04:01:54;35.93;;;20.80;;
11048;SDS011;5577;42.706;23.160;2022-12-07T04:04:43;34.67;;;19.93;;
11048;SDS011;5577;42.706;23.160;2022-12-07T04:07:27;35.13;;;19.87;;
11048;SDS011;5577;42.706;23.160;2022-12-07T04:10:11;35.20;;;18.90;;
11048;SDS011;5577;42.706;23.160;2022-12-07T04:12:55;32.47;;;18.70;;
11048;SDS011;5577;42.706;23.160;2022-12-07T04:15:39;34.00;;;20.07;;
11048;SDS011;5577;42.706;23.160;2022-12-07T04:18:23;39.00;;;19.37;;
11048;SDS011;5577;42.706;23.160;2022-12-07T04:21:07;33.93;;;18.73;;
11048;SDS011;5577;42.706;23.160;2022-12-07T04:23:51;32.97;;;19.53;;
11048;SDS011;5577;42.706;23.160;2022-12-07T04:26:35;37.33;;;18.77;;
11048;SDS011;5577;42.706;23.160;2022-12-07T04:29:19;32.70;;;19.33;;
11048;SDS011;5577;42.706;23.160;2022-12-07T04:32:04;35.07;;;19.17;;
11048;SDS011;5577;42.706;23.160;2022-12-07T04:34:48;38.23;;;20.33;;
11048;SDS011;5577;42.706;23.160;2022-12-07T04:37:32;39.87;;;21.00;;
11048;SDS011;5577;42.706;23.160;2022-12-07T04:40:16;37.73;;;19.10;;
11048;SDS011;5577;42.706;23.160;2022-12-07T04:43:00;35.57;;;20.90;;
11048;SDS011;5577;42.706;23.160;2022-12-07T04:45:47;37.73;;;21.23;;
11048;SDS011;5577;42.706;23.160;2022-12-07T04:48:32;40.13;;;22.17;;
11048;SDS011;5577;42.706;23.160;2022-12-07T04:51:16;35.03;;;20.50;;
11048;SDS011;5577;42.706;23.160;2022-12-07T04:54:04;41.70;;;20.67;;
11048;SDS011;5577;42.706;23.160;2022-12-07T04:56:48;38.23;;;21.10;;
11048;SDS011;5577;42.706;23.160;2022-12-07T04:59:32;36.63;;;20.83;;
11048;SDS011;5577;42.706;23.160;2022-12-07T05:02:16;40.73;;;21.73;;
11048;SDS011;5577;42.706;23.160;2022-12-07T05:05:00;35.77;;;20.47;;
11048;SDS011;5577;42.706;23.160;2022-12-07T05:07:44;40.97;;;22.50;;
11048;SDS011;5577;42.706;23.160;2022-12-07T05:10:28;51.50;;;24.70;;
11048;SDS011;5577;42.706;23.160;2022-12-07T05:13:12;60.23;;;29.27;;
11048;SDS011;5577;42.706;23.160;2022-12-07T05:15:56;49.57;;;24.77;;
11048;SDS011;5577;42.706;23.160;2022-12-07T05:18:40;47.37;;;25.60;;
11048;SDS011;5577;42.706;23.160;2022-12-07T05:21:24;55.30;;;28.30;;
11048;SDS011;5577;42.706;23.160;2022-12-07T05:24:09;50.97;;;27.83;;
11048;SDS011;5577;42.706;23.160;2022-12-07T05:26:55;52.13;;;27.13;;
11048;SDS011;5577;42.706;23.160;2022-12-07T05:29:39;49.47;;;27.33;;
11048;SDS011;5577;42.706;23.160;2022-12-07T05:32:23;49.20;;;28.20;;
11048;SDS011;5577;42.706;23.160;2022-12-07T05:35:07;47.50;;;26.77;;
11048;SDS011;5577;42.706;23.160;2022-12-07T05:37:52;54.70;;;27.97;;
11048;SDS011;5577;42.706;23.160;2022-12-07T05:40:36;46.53;;;27.37;;
11048;SDS011;5577;42.706;23.160;2022-12-07T05:43:20;46.23;;;27.67;;
11048;SDS011;5577;42.706;23.160;2022-12-07T05:46:04;49.43;;;27.07;;
11048;SDS011;5577;42.706;23.160;2022-12-07T05:48:48;43.97;;;26.20;;
11048;SDS011;5577;42.706;23.160;2022-12-07T05:51:32;40.10;;;24.60;;
11048;SDS011;5577;42.706;23.160;2022-12-07T05:54:16;41.00;;;23.07;;
11048;SDS011;5577;42.706;23.160;2022-12-07T05:57:00;41.83;;;23.63;;
11048;SDS011;5577;42.706;23.160;2022-12-07T05:59:44;41.77;;;21.53;;
11048;SDS011;5577;42.706;23.160;2022-12-07T06:02:28;41.10;;;22.63;;
11048;SDS011;5577;42.706;23.160;2022-12-07T06:05:11;43.27;;;23.00;;
11048;SDS011;5577;42.706;23.160;2022-12-07T06:07:55;39.53;;;23.17;;
11048;SDS011;5577;42.706;23.160;2022-12-07T06:10:39;41.70;;;21.93;;
11048;SDS011;5577;42.706;23.160;2022-12-07T06:13:23;38.70;;;22.30;;
11048;SDS011;5577;42.706;23.160;2022-12-07T06:16:07;40.07;;;22.33;;
11048;SDS011;5577;42.706;23.160;2022-12-07T06:18:51;42.60;;;24.90;;
11048;SDS011;5577;42.706;23.160;2022-12-07T06:21:35;45.97;;;25.70;;
11048;SDS011;5577;42.706;23.160;2022-12-07T06:24:19;41.27;;;21.73;;
11048;SDS011;5577;42.706;23.160;2022-12-07T06:27:03;40.03;;;22.17;;
11048;SDS011;5577;42.706;23.160;2022-12-07T06:29:47;38.87;;;22.13;;
11048;SDS011;5577;42.706;23.160;2022-12-07T06:32:32;40.83;;;24.00;;
11048;SDS011;5577;42.706;23.160;2022-12-07T06:35:16;40.03;;;22.57;;
11048;SDS011;5577;42.706;23.160;2022-12-07T06:38:00;43.47;;;22.43;;
11048;SDS011;5577;42.706;23.160;2022-12-07T06:40:44;43.53;;;21.70;;
11048;SDS011;5577;42.706;23.160;2022-12-07T06:43:28;36.47;;;21.40;;
11048;SDS011;5577;42.706;23.160;2022-12-07T06:46:13;39.80;;;22.63;;
11048;SDS011;5577;42.706;23.160;2022-12-07T06:48:57;42.63;;;22.93;;
11048;SDS011;5577;42.706;23.160;2022-12-07T06:51:41;43.97;;;23.43;;
11048;SDS011;5577;42.706;23.160;2022-12-07T06:54:26;42.37;;;22.23;;
11048;SDS011;5577;42.706;23.160;2022-12-07T06:57:11;49.03;;;23.73;;
11048;SDS011;5577;42.706;23.160;2022-12-07T06:59:55;43.13;;;23.37;;
11048;SDS011;5577;42.706;23.160;2022-12-07T07:02:39;45.10;;;25.03;;
11048;SDS011;5577;42.706;23.160;2022-12-07T07:05:23;45.73;;;24.20;;
11048;SDS011;5577;42.706;23.160;2022-12-07T07:08:07;45.70;;;24.67;;
11048;SDS011;5577;42.706;23.160;2022-12-07T07:10:50;46.27;;;26.33;;
11048;SDS011;5577;42.706;23.160;2022-12-07T07:13:34;41.47;;;22.43;;
11048;SDS011;5577;42.706;23.160;2022-12-07T07:16:19;42.57;;;22.50;;
11048;SDS011;5577;42.706;23.160;2022-12-07T07:19:03;43.43;;;24.53;;
11048;SDS011;5577;42.706;23.160;2022-12-07T07:21:47;44.77;;;23.37;;
11048;SDS011;5577;42.706;23.160;2022-12-07T07:24:31;49.70;;;24.67;;
11048;SDS011;5577;42.706;23.160;2022-12-07T07:27:14;44.37;;;21.43;;
11048;SDS011;5577;42.706;23.160;2022-12-07T07:29:58;41.33;;;21.67;;
11048;SDS011;5577;42.706;23.160;2022-12-07T07:32:42;39.27;;;21.03;;
11048;SDS011;5577;42.706;23.160;2022-12-07T07:35:27;41.80;;;20.23;;
11048;SDS011;5577;42.706;23.160;2022-12-07T07:38:13;33.70;;;18.77;;
11048;SDS011;5577;42.706;23.160;2022-12-07T07:40:57;31.97;;;18.50;;
11048;SDS011;5577;42.706;23.160;2022-12-07T07:43:40;32.47;;;18.77;;
11048;SDS011;5577;42.706;23.160;2022-12-07T07:46:24;36.80;;;18.93;;
11048;SDS011;5577;42.706;23.160;2022-12-07T07:49:09;39.17;;;20.07;;
11048;SDS011;5577;42.706;23.160;2022-12-07T07:51:54;39.93;;;20.77;;
11048;SDS011;5577;42.706;23.160;2022-12-07T07:54:38;39.50;;;21.23;;
11048;SDS011;5577;42.706;23.160;2022-12-07T07:57:22;37.33;;;20.23;;
11048;SDS011;5577;42.706;23.160;2022-12-07T08:00:07;37.23;;;20.33;;
11048;SDS011;5577;42.706;23.160;2022-12-07T08:02:54;40.07;;;20.87;;
11048;SDS011;5577;42.706;23.160;2022-12-07T08:05:38;43.73;;;22.63;;
11048;SDS011;5577;42.706;23.160;2022-12-07T08:08:22;39.00;;;19.63;;
11048;SDS011;5577;42.706;23.160;2022-12-07T08:11:07;37.83;;;20.93;;
11048;SDS011;5577;42.706;23.160;2022-12-07T08:13:52;39.50;;;23.17;;
11048;SDS011;5577;42.706;23.160;2022-12-07T08:16:36;44.87;;;22.80;;
11048;SDS011;5577;42.706;23.160;2022-12-07T08:19:21;45.43;;;22.27;;
11048;SDS011;5577;42.706;23.160;2022-12-07T08:22:05;43.80;;;22.47;;
11048;SDS011;5577;42.706;23.160;2022-12-07T08:24:49;41.23;;;22.33;;
11048;SDS011;5577;42.706;23.160;2022-12-07T08:27:32;37.97;;;21.47;;
11048;SDS011;5577;42.706;23.160;2022-12-07T08:30:16;37.50;;;20.60;;
11048;SDS011;5577;42.706;23.160;2022-12-07T08:33:03;38.87;;;20.17;;
11048;SDS011;5577;42.706;23.160;2022-12-07T08:35:47;36.90;;;20.53;;
11048;SDS011;5577;42.706;23.160;2022-12-07T08:38:31;40.87;;;20.93;;
11048;SDS011;5577;42.706;23.160;2022-12-07T08:41:15;37.20;;;21.40;;
11048;SDS011;5577;42.706;23.160;2022-12-07T08:43:59;31.60;;;20.00;;
11048;SDS011;5577;42.706;23.160;2022-12-07T08:46:51;34.37;;;19.97;;
11048;SDS011;5577;42.706;23.160;2022-12-07T08:49:41;34.43;;;19.50;;
11048;SDS011;5577;42.706;23.160;2022-12-07T08:52:32;35.33;;;19.33;;
11048;SDS011;5577;42.706;23.160;2022-12-07T08:55:17;32.23;;;19.67;;
11048;SDS011;5577;42.706;23.160;2022-12-07T08:58:02;27.10;;;18.30;;
11048;SDS011;5577;42.706;23.160;2022-12-07T09:00:46;32.80;;;18.83;;
11048;SDS011;5577;42.706;23.160;2022-12-07T09:03:31;30.80;;;19.17;;
11048;SDS011;5577;42.706;23.160;2022-12-07T09:06:15;29.90;;;18.87;;
11048;SDS011;5577;42.706;23.160;2022-12-07T09:08:59;28.93;;;17.80;;
11048;SDS011;5577;42.706;23.160;2022-12-07T09:11:44;27.23;;;17.73;;
11048;SDS011;5577;42.706;23.160;2022-12-07T09:14:28;29.90;;;18.97;;
11048;SDS011;5577;42.706;23.160;2022-12-07T09:17:12;28.77;;;18.63;;
11048;SDS011;5577;42.706;23.160;2022-12-07T09:19:56;29.33;;;19.13;;
11048;SDS011;5577;42.706;23.160;2022-12-07T09:22:40;30.67;;;20.60;;
11048;SDS011;5577;42.706;23.160;2022-12-07T09:25:24;32.63;;;20.23;;
11048;SDS011;5577;42.706;23.160;2022-12-07T09:28:08;33.33;;;22.47;;
11048;SDS011;5577;42.706;23.160;2022-12-07T09:30:52;35.07;;;22.60;;
11048;SDS011;5577;42.706;23.160;2022-12-07T09:33:36;38.47;;;23.60;;
11048;SDS011;5577;42.706;23.160;2022-12-07T09:36:20;37.00;;;24.37;;
11048;SDS011;5577;42.706;23.160;2022-12-07T09:39:04;36.97;;;24.80;;
11048;SDS011;5577;42.706;23.160;2022-12-07T09:41:49;40.37;;;25.73;;
11048;SDS011;5577;42.706;23.160;2022-12-07T09:44:33;42.23;;;26.70;;
11048;SDS011;5577;42.706;23.160;2022-12-07T09:47:18;40.07;;;25.73;;
11048;SDS011;5577;42.706;23.160;2022-12-07T09:50:05;39.50;;;24.73;;
11048;SDS011;5577;42.706;23.160;2022-12-07T09:53:02;38.60;;;25.20;;
11048;SDS011;5577;42.706;23.160;2022-12-07T09:55:56;44.53;;;27.37;;
11048;SDS011;5577;42.706;23.160;2022-12-07T09:58:40;42.57;;;27.03;;
11048;SDS011;5577;42.706;23.160;2022-12-07T10:01:27;43.40;;;28.30;;
11048;SDS011;5577;42.706;23.160;2022-12-07T10:04:14;42.07;;;26.80;;
11048;SDS011;5577;42.706;23.160;2022-12-07T10:07:04;44.43;;;27.90;;
11048;SDS011;5577;42.706;23.160;2022-12-07T10:09:48;43.60;;;27.87;;
11048;SDS011;5577;42.706;23.160;2022-12-07T10:12:44;44.73;;;29.73;;
11048;SDS011;5577;42.706;23.160;2022-12-07T10:18:41;48.27;;;28.63;;
11048;SDS011;5577;42.706;23.160;2022-12-07T10:21:26;43.07;;;28.07;;
11048;SDS011;5577;42.706;23.160;2022-12-07T10:26:54;47.07;;;30.07;;
11048;SDS011;5577;42.706;23.160;2022-12-07T10:29:39;48.57;;;29.73;;
11048;SDS011;5577;42.706;23.160;2022-12-07T10:32:31;45.53;;;29.40;;
11048;SDS011;5577;42.706;23.160;2022-12-07T10:35:19;38.83;;;24.30;;
11048;SDS011;5577;42.706;23.160;2022-12-07T10:38:15;33.93;;;21.20;;
11048;SDS011;5577;42.706;23.160;2022-12-07T10:41:04;34.73;;;23.50;;
11048;SDS011;5577;42.706;23.160;2022-12-07T10:43:52;36.60;;;24.10;;
11048;SDS011;5577;42.706;23.160;2022-12-07T11:05:09;33.77;;;22.57;;
11048;SDS011;5577;42.706;23.160;2022-12-07T11:10:55;32.50;;;22.90;;
11048;SDS011;5577;42.706;23.160;2022-12-07T11:37:51;32.53;;;22.50;;
11048;SDS011;5577;42.706;23.160;2022-12-07T11:40:43;32.70;;;23.83;;
11048;SDS011;5577;42.706;23.160;2022-12-07T11:43:32;35.20;;;23.23;;
11048;SDS011;5577;42.706;23.160;2022-12-07T11:46:18;37.87;;;23.27;;
11048;SDS011;5577;42.706;23.160;2022-12-07T11:49:10;38.90;;;24.70;;
11048;SDS011;5577;42.706;23.160;2022-12-07T11:52:05;39.63;;;27.93;;
11048;SDS011;5577;42.706;23.160;2022-12-07T11:55:18;42.57;;;26.30;;
11048;SDS011;5577;42.706;23.160;2022-12-07T12:04:13;36.27;;;24.60;;
11048;SDS011;5577;42.706;23.160;2022-12-07T12:07:07;41.20;;;26.37;;
11048;SDS011;5577;42.706;23.160;2022-12-07T12:09:59;37.37;;;24.67;;
11048;SDS011;5577;42.706;23.160;2022-12-07T12:21:29;38.73;;;25.10;;
11048;SDS011;5577;42.706;23.160;2022-12-07T12:24:16;35.67;;;24.20;;
11048;SDS011;5577;42.706;23.160;2022-12-07T12:27:07;41.17;;;23.90;;
11048;SDS011;5577;42.706;23.160;2022-12-07T12:30:39;37.17;;;23.60;;
11048;SDS011;5577;42.706;23.160;2022-12-07T12:41:51;43.43;;;24.43;;
11048;SDS011;5577;42.706;23.160;2022-12-07T12:44:38;40.67;;;25.63;;
11048;SDS011;5577;42.706;23.160;2022-12-07T12:47:43;38.13;;;26.40;;
11048;SDS011;5577;42.706;23.160;2022-12-07T12:50:36;42.03;;;26.63;;
11048;SDS011;5577;42.706;23.160;2022-12-07T12:53:24;39.07;;;26.23;;
11048;SDS011;5577;42.706;23.160;2022-12-07T12:56:22;40.50;;;26.73;;
11048;SDS011;5577;42.706;23.160;2022-12-07T13:08:01;41.23;;;25.93;;
11048;SDS011;5577;42.706;23.160;2022-12-07T13:10:49;37.60;;;25.50;;
11048;SDS011;5577;42.706;23.160;2022-12-07T13:13:33;42.90;;;26.57;;
11048;SDS011;5577;42.706;23.160;2022-12-07T13:16:36;39.07;;;26.70;;
11048;SDS011;5577;42.706;23.160;2022-12-07T13:25:19;43.70;;;25.37;;
11048;SDS011;5577;42.706;23.160;2022-12-07T13:31:04;38.13;;;24.07;;
11048;SDS011;5577;42.706;23.160;2022-12-07T13:33:56;41.00;;;24.17;;
11048;SDS011;5577;42.706;23.160;2022-12-07T13:36:43;36.90;;;22.27;;
11048;SDS011;5577;42.706;23.160;2022-12-07T13:39:28;30.20;;;19.40;;
11048;SDS011;5577;42.706;23.160;2022-12-07T13:42:31;34.73;;;20.00;;
11048;SDS011;5577;42.706;23.160;2022-12-07T13:45:22;33.93;;;20.03;;
11048;SDS011;5577;42.706;23.160;2022-12-07T13:48:33;32.17;;;20.03;;
11048;SDS011;5577;42.706;23.160;2022-12-07T13:51:27;41.57;;;22.47;;
11048;SDS011;5577;42.706;23.160;2022-12-07T13:54:12;37.37;;;21.23;;
11048;SDS011;5577;42.706;23.160;2022-12-07T13:56:57;30.17;;;18.60;;
11048;SDS011;5577;42.706;23.160;2022-12-07T13:59:42;29.20;;;17.80;;
11048;SDS011;5577;42.706;23.160;2022-12-07T14:02:30;26.57;;;16.60;;
11048;SDS011;5577;42.706;23.160;2022-12-07T14:05:22;30.97;;;17.80;;
11048;SDS011;5577;42.706;23.160;2022-12-07T14:10:56;29.50;;;16.70;;
11048;SDS011;5577;42.706;23.160;2022-12-07T14:16:33;26.63;;;15.77;;
11048;SDS011;5577;42.706;23.160;2022-12-07T14:22:38;24.13;;;14.40;;
11048;SDS011;5577;42.706;23.160;2022-12-07T14:25:23;27.60;;;14.63;;
11048;SDS011;5577;42.706;23.160;2022-12-07T14:28:10;26.07;;;14.20;;
11048;SDS011;5577;42.706;23.160;2022-12-07T14:31:13;25.70;;;15.93;;
11048;SDS011;5577;42.706;23.160;2022-12-07T14:33:59;23.93;;;14.20;;
11048;SDS011;5577;42.706;23.160;2022-12-07T14:36:43;25.33;;;14.47;;
11048;SDS011;5577;42.706;23.160;2022-12-07T14:39:27;28.20;;;15.53;;
11048;SDS011;5577;42.706;23.160;2022-12-07T14:42:11;22.57;;;13.83;;
11048;SDS011;5577;42.706;23.160;2022-12-07T14:44:55;25.90;;;16.03;;
11048;SDS011;5577;42.706;23.160;2022-12-07T14:47:41;26.10;;;15.70;;
11048;SDS011;5577;42.706;23.160;2022-12-07T14:50:25;26.37;;;15.97;;
11048;SDS011;5577;42.706;23.160;2022-12-07T14:53:11;29.87;;;17.17;;
11048;SDS011;5577;42.706;23.160;2022-12-07T14:55:57;29.57;;;16.27;;
11048;SDS011;5577;42.706;23.160;2022-12-07T14:58:41;26.77;;;16.33;;
11048;SDS011;5577;42.706;23.160;2022-12-07T15:01:25;29.30;;;17.37;;
11048;SDS011;5577;42.706;23.160;2022-12-07T15:04:09;26.40;;;17.33;;
11048;SDS011;5577;42.706;23.160;2022-12-07T15:06:57;29.03;;;17.43;;
11048;SDS011;5577;42.706;23.160;2022-12-07T15:09:42;32.77;;;19.30;;
11048;SDS011;5577;42.706;23.160;2022-12-07T15:12:26;28.30;;;17.37;;
11048;SDS011;5577;42.706;23.160;2022-12-07T15:15:10;32.53;;;17.93;;
11048;SDS011;5577;42.706;23.160;2022-12-07T15:17:54;30.53;;;18.57;;
11048;SDS011;5577;42.706;23.160;2022-12-07T15:20:38;81.67;;;36.13;;
11048;SDS011;5577;42.706;23.160;2022-12-07T15:23:22;120.27;;;55.90;;
11048;SDS011;5577;42.706;23.160;2022-12-07T15:26:06;117.50;;;60.07;;
11048;SDS011;5577;42.706;23.160;2022-12-07T15:28:52;82.53;;;43.33;;
11048;SDS011;5577;42.706;23.160;2022-12-07T15:31:37;74.47;;;39.47;;
11048;SDS011;5577;42.706;23.160;2022-12-07T15:34:22;44.00;;;24.57;;
11048;SDS011;5577;42.706;23.160;2022-12-07T15:37:07;59.83;;;29.33;;
11048;SDS011;5577;42.706;23.160;2022-12-07T15:39:54;43.70;;;25.13;;
11048;SDS011;5577;42.706;23.160;2022-12-07T15:42:38;36.27;;;21.77;;
11048;SDS011;5577;42.706;23.160;2022-12-07T15:45:22;37.03;;;20.03;;
11048;SDS011;5577;42.706;23.160;2022-12-07T15:48:06;33.47;;;20.00;;
11048;SDS011;5577;42.706;23.160;2022-12-07T15:50:50;34.13;;;18.53;;
11048;SDS011;5577;42.706;23.160;2022-12-07T15:53:34;42.87;;;24.60;;
11048;SDS011;5577;42.706;23.160;2022-12-07T15:56:19;32.77;;;19.87;;
11048;SDS011;5577;42.706;23.160;2022-12-07T15:59:04;33.83;;;20.77;;
11048;SDS011;5577;42.706;23.160;2022-12-07T16:01:48;34.57;;;20.60;;
11048;SDS011;5577;42.706;23.160;2022-12-07T16:04:32;38.07;;;21.10;;
11048;SDS011;5577;42.706;23.160;2022-12-07T16:07:18;28.97;;;19.30;;
11048;SDS011;5577;42.706;23.160;2022-12-07T16:10:03;41.07;;;20.03;;
11048;SDS011;5577;42.706;23.160;2022-12-07T16:12:47;38.63;;;19.67;;
11048;SDS011;5577;42.706;23.160;2022-12-07T16:15:31;32.63;;;18.00;;
11048;SDS011;5577;42.706;23.160;2022-12-07T16:18:15;30.87;;;19.07;;
11048;SDS011;5577;42.706;23.160;2022-12-07T16:20:59;29.27;;;19.27;;
11048;SDS011;5577;42.706;23.160;2022-12-07T16:23:46;40.63;;;22.73;;
11048;SDS011;5577;42.706;23.160;2022-12-07T16:26:30;35.57;;;22.73;;
11048;SDS011;5577;42.706;23.160;2022-12-07T16:29:14;37.53;;;23.93;;
11048;SDS011;5577;42.706;23.160;2022-12-07T16:31:59;70.23;;;46.30;;
11048;SDS011;5577;42.706;23.160;2022-12-07T16:34:48;79.60;;;45.87;;
11048;SDS011;5577;42.706;23.160;2022-12-07T16:37:46;84.13;;;46.90;;
11048;SDS011;5577;42.706;23.160;2022-12-07T16:40:43;196.57;;;103.83;;
11048;SDS011;5577;42.706;23.160;2022-12-07T16:43:29;105.20;;;54.47;;
11048;SDS011;5577;42.706;23.160;2022-12-07T16:46:52;98.87;;;58.07;;
11048;SDS011;5577;42.706;23.160;2022-12-07T18:01:39;57.07;;;35.03;;
11048;SDS011;5577;42.706;23.160;2022-12-07T18:04:23;57.77;;;34.20;;
11048;SDS011;5577;42.706;23.160;2022-12-07T18:07:08;49.60;;;31.63;;
11048;SDS011;5577;42.706;23.160;2022-12-07T18:10:02;50.33;;;31.57;;
11048;SDS011;5577;42.706;23.160;2022-12-07T18:12:49;51.83;;;32.00;;
11048;SDS011;5577;42.706;23.160;2022-12-07T18:26:47;52.20;;;32.40;;
11048;SDS011;5577;42.706;23.160;2022-12-07T18:29:31;54.47;;;31.23;;
11048;SDS011;5577;42.706;23.160;2022-12-07T18:32:15;48.07;;;29.20;;
11048;SDS011;5577;42.706;23.160;2022-12-07T18:34:59;53.93;;;31.50;;
11048;SDS011;5577;42.706;23.160;2022-12-07T18:37:43;53.63;;;30.60;;
11048;SDS011;5577;42.706;23.160;2022-12-07T18:40:27;52.27;;;29.87;;
11048;SDS011;5577;42.706;23.160;2022-12-07T18:43:11;47.67;;;27.77;;
11048;SDS011;5577;42.706;23.160;2022-12-07T18:45:56;50.33;;;28.37;;
11048;SDS011;5577;42.706;23.160;2022-12-07T18:48:39;50.63;;;29.30;;
11048;SDS011;5577;42.706;23.160;2022-12-07T18:51:23;45.97;;;27.33;;
11048;SDS011;5577;42.706;23.160;2022-12-07T18:54:07;49.07;;;29.03;;
11048;SDS011;5577;42.706;23.160;2022-12-07T19:17:01;44.70;;;25.97;;
11048;SDS011;5577;42.706;23.160;2022-12-07T19:19:48;43.97;;;26.50;;
11048;SDS011;5577;42.706;23.160;2022-12-07T19:22:32;51.37;;;32.13;;
11048;SDS011;5577;42.706;23.160;2022-12-07T19:25:16;45.03;;;27.57;;
11048;SDS011;5577;42.706;23.160;2022-12-07T19:28:00;55.40;;;34.03;;
11048;SDS011;5577;42.706;23.160;2022-12-07T19:30:44;65.60;;;38.67;;
11048;SDS011;5577;42.706;23.160;2022-12-07T19:33:28;54.57;;;33.97;;
11048;SDS011;5577;42.706;23.160;2022-12-07T19:36:12;64.77;;;38.53;;
11048;SDS011;5577;42.706;23.160;2022-12-07T19:38:56;59.17;;;33.97;;
11048;SDS011;5577;42.706;23.160;2022-12-07T19:41:40;48.43;;;30.60;;
11048;SDS011;5577;42.706;23.160;2022-12-07T19:44:26;47.37;;;28.27;;
11048;SDS011;5577;42.706;23.160;2022-12-07T19:47:12;50.07;;;28.53;;
11048;SDS011;5577;42.706;23.160;2022-12-07T19:50:00;52.20;;;28.77;;
11048;SDS011;5577;42.706;23.160;2022-12-07T19:52:43;56.93;;;34.80;;
11048;SDS011;5577;42.706;23.160;2022-12-07T19:55:27;59.43;;;36.63;;
11048;SDS011;5577;42.706;23.160;2022-12-07T19:58:11;90.37;;;51.33;;
11048;SDS011;5577;42.706;23.160;2022-12-07T20:01:00;69.93;;;40.43;;
11048;SDS011;5577;42.706;23.160;2022-12-07T20:03:48;61.63;;;36.87;;